createdAt,value
2018-04-17T00:00:35.680Z,81.80
2018-04-17T00:03:03.219Z,81.85
2018-04-17T00:05:30.782Z,82.43
2018-04-17T00:07:58.311Z,81.73
2018-04-17T00:10:25.863Z,81.49
2018-04-17T00:12:54.175Z,81.84
2018-04-17T00:15:22.237Z,81.31
2018-04-17T00:17:49.841Z,81.44
2018-04-17T00:20:17.478Z,81.98
2018-04-17T00:22:45.083Z,82.76
2018-04-17T00:25:12.770Z,83.29
2018-04-17T00:27:40.328Z,83.41
2018-04-17T00:30:08.054Z,83.89
2018-04-17T00:32:36.866Z,84.27
2018-04-17T00:35:04.415Z,84.60
2018-04-17T00:37:31.971Z,84.55
2018-04-17T00:39:59.938Z,84.23
2018-04-17T00:42:28.187Z,83.74
2018-04-17T00:44:56.369Z,83.42
2018-04-17T00:47:23.901Z,83.32
2018-04-17T00:49:51.792Z,83.30
2018-04-17T00:52:19.335Z,83.14
2018-04-17T00:54:46.885Z,83.09
2018-04-17T00:57:14.471Z,82.89
2018-04-17T00:59:41.993Z,82.84
2018-04-17T01:02:09.598Z,82.73
2018-04-17T01:04:37.409Z,82.83
2018-04-17T01:07:04.978Z,82.78
2018-04-17T01:09:32.522Z,82.84
2018-04-17T01:12:00.700Z,82.60
2018-04-17T01:14:28.948Z,82.53
2018-04-17T01:16:56.493Z,82.51
2018-04-17T01:19:24.032Z,82.41
2018-04-17T01:21:51.591Z,82.21
2018-04-17T01:24:19.312Z,82.00
2018-04-17T01:26:47.615Z,81.77
2018-04-17T01:29:15.152Z,81.53
2018-04-17T01:31:43.042Z,81.57
2018-04-17T01:34:10.590Z,81.70
2018-04-17T01:36:38.494Z,81.74
2018-04-17T01:39:07.118Z,81.76
2018-04-17T01:41:35.299Z,81.98
2018-04-17T01:44:05.458Z,82.13
2018-04-17T01:46:32.995Z,82.45
2018-04-17T01:49:01.291Z,82.46
2018-04-17T01:51:28.829Z,82.54
2018-04-17T01:53:56.367Z,82.50
2018-04-17T01:56:23.963Z,82.25
2018-04-17T01:58:51.498Z,82.06
2018-04-17T02:01:19.083Z,82.04
2018-04-17T02:03:46.730Z,82.14
2018-04-17T02:06:14.282Z,82.11
2018-04-17T02:08:41.834Z,81.81
2018-04-17T02:11:10.287Z,82.33
2018-04-17T02:13:39.486Z,82.32
2018-04-17T02:16:07.254Z,82.31
2018-04-17T02:18:34.795Z,82.31
2018-04-17T02:21:02.350Z,82.27
2018-04-17T02:23:30.063Z,82.28
2018-04-17T02:25:57.641Z,82.30
2018-04-17T02:28:25.206Z,82.16
2018-04-17T02:30:52.763Z,82.08
2018-04-17T02:33:20.302Z,81.74
2018-04-17T02:35:47.879Z,81.47
2018-04-17T02:38:16.445Z,81.25
2018-04-17T02:40:44.779Z,81.10
2018-04-17T02:43:12.688Z,80.95
2018-04-17T02:45:41.074Z,80.88
2018-04-17T02:48:09.343Z,80.53
2018-04-17T02:50:37.205Z,80.32
2018-04-17T02:53:04.764Z,80.01
2018-04-17T02:55:33.637Z,79.85
2018-04-17T02:58:01.167Z,79.86
2018-04-17T03:00:28.696Z,79.79
2018-04-17T03:02:56.254Z,79.69
2018-04-17T03:05:23.805Z,79.62
2018-04-17T03:07:51.344Z,79.43
2018-04-17T03:10:19.480Z,79.38
2018-04-17T03:12:47.974Z,79.09
2018-04-17T03:15:16.359Z,79.01
2018-04-17T03:17:43.951Z,78.87
2018-04-17T03:20:11.482Z,78.78
2018-04-17T03:22:39.060Z,78.80
2018-04-17T03:25:06.628Z,78.73
2018-04-17T03:27:34.370Z,78.64
2018-04-17T03:30:02.338Z,78.64
2018-04-17T03:32:29.891Z,78.67
2018-04-17T03:34:57.412Z,78.62
2018-04-17T03:37:24.981Z,78.57
2018-04-17T03:39:53.167Z,78.33
2018-04-17T03:42:21.526Z,78.17
2018-04-17T03:44:49.910Z,78.12
2018-04-17T03:47:17.459Z,78.21
2018-04-17T03:49:45.802Z,78.31
2018-04-17T03:52:13.352Z,78.38
2018-04-17T03:54:40.890Z,78.49
2018-04-17T03:57:08.686Z,78.45
2018-04-17T03:59:36.283Z,78.51
2018-04-17T04:02:04.161Z,78.57
2018-04-17T04:04:31.826Z,78.69
2018-04-17T04:06:59.357Z,78.57
2018-04-17T04:09:27.901Z,78.49
2018-04-17T04:11:56.062Z,78.43
2018-04-17T04:14:24.468Z,78.40
2018-04-17T04:17:03.952Z,78.45
2018-04-17T04:19:43.344Z,78.66
2018-04-17T04:22:22.710Z,78.83
2018-04-17T04:25:02.372Z,78.93
2018-04-17T04:27:29.957Z,79.07
2018-04-17T04:29:57.519Z,79.21
2018-04-17T04:32:25.975Z,79.14
2018-04-17T04:34:53.574Z,79.21
2018-04-17T04:37:21.151Z,79.25
2018-04-17T04:39:49.459Z,79.30
2018-04-17T04:42:17.569Z,79.43
2018-04-17T04:44:45.839Z,79.49
2018-04-17T04:47:13.377Z,79.38
2018-04-17T04:49:41.530Z,79.39
2018-04-17T04:52:09.105Z,79.26
2018-04-17T04:54:36.718Z,79.09
2018-04-17T04:57:04.383Z,79.04
2018-04-17T04:59:31.981Z,78.83
2018-04-17T05:01:59.520Z,78.89
2018-04-17T05:04:27.230Z,79.01
2018-04-17T05:06:54.775Z,79.01
2018-04-17T05:09:22.349Z,79.08
2018-04-17T05:11:50.647Z,79.27
2018-04-17T05:14:18.992Z,79.25
2018-04-17T05:16:46.590Z,79.30
2018-04-17T05:19:14.105Z,79.16
2018-04-17T05:21:41.690Z,78.96
2018-04-17T05:24:09.444Z,78.73
2018-04-17T05:26:37.282Z,78.50
2018-04-17T05:29:04.905Z,78.12
2018-04-17T05:31:32.465Z,78.06
2018-04-17T05:34:00.019Z,77.94
2018-04-17T05:36:27.621Z,77.61
2018-04-17T05:38:55.871Z,77.47
2018-04-17T05:41:24.138Z,77.30
2018-04-17T05:43:52.110Z,77.03
2018-04-17T05:46:19.658Z,76.65
2018-04-17T05:48:47.824Z,76.53
2018-04-17T05:51:15.374Z,76.22
2018-04-17T05:53:42.911Z,75.58
2018-04-17T05:56:10.492Z,75.09
2018-04-17T05:58:38.210Z,74.51
2018-04-17T06:01:05.762Z,74.27
2018-04-17T06:03:33.336Z,73.89
2018-04-17T06:06:00.883Z,73.65
2018-04-17T06:08:28.420Z,73.56
2018-04-17T06:10:56.342Z,73.90
2018-04-17T06:13:24.519Z,73.13
2018-04-17T06:15:52.865Z,72.98
2018-04-17T06:18:20.407Z,72.88
2018-04-17T06:20:47.977Z,72.85
2018-04-17T06:23:15.545Z,72.50
2018-04-17T06:25:43.563Z,72.14
2018-04-17T06:28:11.100Z,71.19
2018-04-17T06:30:38.809Z,70.67
2018-04-17T06:33:06.488Z,69.67
2018-04-17T06:35:34.118Z,68.83
2018-04-17T06:38:01.654Z,68.11
2018-04-17T06:40:29.900Z,68.03
2018-04-17T06:42:58.044Z,68.23
2018-04-17T06:45:26.172Z,68.78
2018-04-17T06:47:54.597Z,69.00
2018-04-17T06:50:22.147Z,69.43
2018-04-17T06:52:49.773Z,69.81
2018-04-17T06:55:17.328Z,69.76
2018-04-17T06:57:44.885Z,68.97
2018-04-17T07:00:12.460Z,69.37
2018-04-17T07:02:40.040Z,69.29
2018-04-17T07:05:07.673Z,68.76
2018-04-17T07:07:35.380Z,68.56
2018-04-17T07:10:03.619Z,68.22
2018-04-17T07:12:32.002Z,68.03
2018-04-17T07:15:00.388Z,67.74
2018-04-17T07:17:27.974Z,67.75
2018-04-17T07:19:55.523Z,67.44
2018-04-17T07:22:23.205Z,67.02
2018-04-17T07:24:50.778Z,66.42
2018-04-17T07:27:18.316Z,66.35
2018-04-17T07:29:45.875Z,66.03
2018-04-17T07:32:13.449Z,65.98
2018-04-17T07:34:41.010Z,64.75
2018-04-17T07:37:08.918Z,64.86
2018-04-17T07:39:37.410Z,64.31
2018-04-17T07:42:05.561Z,64.29
2018-04-17T07:44:33.787Z,64.89
2018-04-17T07:47:13.157Z,64.11
2018-04-17T07:49:41.351Z,63.88
2018-04-17T07:52:08.894Z,63.96
2018-04-17T07:57:03.415Z,64.40
2018-04-17T07:59:30.979Z,64.69
2018-04-17T08:01:58.519Z,64.63
2018-04-17T08:04:26.140Z,64.00
2018-04-17T08:06:53.700Z,64.10
2018-04-17T08:09:21.344Z,64.20
2018-04-17T08:11:49.622Z,63.92
2018-04-17T08:14:17.896Z,64.14
2018-04-17T08:16:45.422Z,64.45
2018-04-17T08:19:12.957Z,64.12
2018-04-17T08:21:40.513Z,63.71
2018-04-17T08:24:08.152Z,63.29
2018-04-17T08:26:35.712Z,63.29
2018-04-17T08:29:03.270Z,62.58
2018-04-17T08:31:30.833Z,62.55
2018-04-17T08:33:58.372Z,62.88
2018-04-17T08:36:25.969Z,62.44
2018-04-17T08:38:54.027Z,62.31
2018-04-17T08:41:22.263Z,62.50
2018-04-17T08:43:50.493Z,61.93
2018-04-17T08:46:18.026Z,61.60
2018-04-17T08:48:46.046Z,61.69
2018-04-17T08:51:13.618Z,61.54
2018-04-17T08:53:41.166Z,61.29
2018-04-17T08:56:08.798Z,61.48
2018-04-17T08:58:36.520Z,60.57
2018-04-17T09:01:04.073Z,60.34
2018-04-17T09:03:31.757Z,59.19
2018-04-17T09:05:59.285Z,58.66
2018-04-17T09:08:26.836Z,58.87
2018-04-17T09:10:55.120Z,58.49
2018-04-17T09:13:23.454Z,58.75
2018-04-17T09:15:51.422Z,58.17
2018-04-17T09:18:18.966Z,57.58
2018-04-17T09:20:46.509Z,57.44
2018-04-17T09:23:14.098Z,57.30
2018-04-17T09:25:41.657Z,57.52
2018-04-17T09:28:09.237Z,57.68
2018-04-17T09:30:36.959Z,57.29
2018-04-17T09:33:04.502Z,57.83
2018-04-17T09:35:32.083Z,58.35
2018-04-17T09:37:59.650Z,57.78
2018-04-17T09:40:27.920Z,57.32
2018-04-17T09:42:56.305Z,56.89
2018-04-17T09:45:24.287Z,57.10
2018-04-17T09:47:52.498Z,57.14
2018-04-17T09:50:20.062Z,57.50
2018-04-17T09:52:47.616Z,58.05
2018-04-17T09:55:16.012Z,58.21
2018-04-17T09:57:43.554Z,58.23
2018-04-17T10:00:11.123Z,58.47
2018-04-17T10:02:38.769Z,58.48
2018-04-17T10:05:06.580Z,58.08
2018-04-17T10:07:34.131Z,57.50
2018-04-17T10:10:02.308Z,57.19
2018-04-17T10:12:31.465Z,57.14
2018-04-17T10:15:00.208Z,56.59
2018-04-17T10:17:27.767Z,56.20
2018-04-17T10:19:55.322Z,55.95
2018-04-17T10:22:22.902Z,56.14
2018-04-17T10:24:50.449Z,56.53
2018-04-17T10:27:18.071Z,56.51
2018-04-17T10:29:45.691Z,56.54
2018-04-17T10:32:13.303Z,56.61
2018-04-17T10:34:40.848Z,56.12
2018-04-17T10:37:08.731Z,56.55
2018-04-17T10:39:37.024Z,56.13
2018-04-17T10:42:05.753Z,56.58
2018-04-17T10:44:33.819Z,56.98
2018-04-17T10:47:01.357Z,57.26
2018-04-17T10:49:29.897Z,57.63
2018-04-17T10:51:57.510Z,58.16
2018-04-17T10:54:25.067Z,58.47
2018-04-17T10:56:52.676Z,58.57
2018-04-17T10:59:20.279Z,58.30
2018-04-17T11:01:47.888Z,58.01
2018-04-17T11:04:15.451Z,57.87
2018-04-17T11:06:43.009Z,57.79
2018-04-17T11:09:10.567Z,56.75
2018-04-17T11:11:39.355Z,56.49
2018-04-17T11:14:07.769Z,56.12
2018-04-17T11:16:35.314Z,55.80
2018-04-17T11:19:02.854Z,55.33
2018-04-17T11:21:30.458Z,55.58
2018-04-17T11:23:57.986Z,55.51
2018-04-17T11:26:25.547Z,55.19
2018-04-17T11:28:53.133Z,54.77
2018-04-17T11:31:20.680Z,54.61
2018-04-17T11:33:48.237Z,54.31
2018-04-17T11:36:15.811Z,54.43
2018-04-17T11:38:43.883Z,54.64
2018-04-17T11:41:12.027Z,54.53
2018-04-17T11:43:40.537Z,54.68
2018-04-17T11:46:08.156Z,55.15
2018-04-17T11:48:37.541Z,55.26
2018-04-17T11:51:05.084Z,55.46
2018-04-17T11:53:32.671Z,55.54
2018-04-17T11:56:00.234Z,55.04
2018-04-17T11:58:27.760Z,54.37
2018-04-17T12:00:55.347Z,54.37
2018-04-17T12:03:22.950Z,54.63
2018-04-17T12:05:50.503Z,54.82
2018-04-17T12:08:18.084Z,55.23
2018-04-17T12:10:46.515Z,55.39
2018-04-17T12:13:15.291Z,55.92
2018-04-17T12:15:43.818Z,56.16
2018-04-17T12:18:11.351Z,56.39
2018-04-17T12:20:39.547Z,56.60
2018-04-17T12:23:07.139Z,56.46
2018-04-17T12:25:34.712Z,56.28
2018-04-17T12:28:02.311Z,56.51
2018-04-17T12:30:29.894Z,56.46
2018-04-17T12:32:57.522Z,56.34
2018-04-17T12:35:25.050Z,56.28
2018-04-17T12:37:52.619Z,55.88
2018-04-17T12:40:21.011Z,55.58
2018-04-17T12:42:49.506Z,55.76
2018-04-17T12:45:17.553Z,56.10
2018-04-17T12:47:45.734Z,56.50
2018-04-17T12:50:13.296Z,56.93
2018-04-17T12:52:40.839Z,57.29
2018-04-17T12:55:09.035Z,57.90
2018-04-17T12:57:36.585Z,58.55
2018-04-17T13:00:04.189Z,58.78
2018-04-17T13:02:31.799Z,59.58
2018-04-17T13:04:59.358Z,60.25
2018-04-17T13:07:26.917Z,60.97
2018-04-17T13:09:55.041Z,61.73
2018-04-17T13:12:23.598Z,62.18
2018-04-17T13:14:51.814Z,62.37
2018-04-17T13:17:20.044Z,62.38
2018-04-17T13:19:47.607Z,62.04
2018-04-17T13:22:16.996Z,62.07
2018-04-17T13:24:44.598Z,62.32
2018-04-17T13:27:12.726Z,62.62
2018-04-17T13:29:40.322Z,62.52
2018-04-17T13:32:08.015Z,62.18
2018-04-17T13:34:35.612Z,61.52
2018-04-17T13:37:03.163Z,61.11
2018-04-17T13:39:30.727Z,60.61
2018-04-17T13:41:59.162Z,60.51
2018-04-17T13:44:27.404Z,60.15
2018-04-17T13:46:54.993Z,60.10
2018-04-17T13:49:23.272Z,60.13
2018-04-17T13:51:50.821Z,59.18
2018-04-17T13:54:18.436Z,58.75
2018-04-17T13:56:46.060Z,59.49
2018-04-17T13:59:13.608Z,59.73
2018-04-17T14:01:41.172Z,60.32
2018-04-17T14:04:09.002Z,60.78
2018-04-17T14:06:36.540Z,61.17
2018-04-17T14:09:04.158Z,61.16
2018-04-17T14:11:32.183Z,61.64
2018-04-17T14:14:00.811Z,62.15
2018-04-17T14:16:29.088Z,62.57
2018-04-17T14:18:57.378Z,63.10
2018-04-17T14:21:25.430Z,63.60
2018-04-17T14:23:52.984Z,64.03
2018-04-17T14:26:20.520Z,64.22
2018-04-17T14:28:48.126Z,64.26
2018-04-17T14:31:15.667Z,64.35
2018-04-17T14:33:43.877Z,64.12
2018-04-17T14:36:11.421Z,63.32
2018-04-17T14:38:39.314Z,63.15
2018-04-17T14:41:07.964Z,62.57
2018-04-17T14:43:36.347Z,62.30
2018-04-17T14:46:03.900Z,62.43
2018-04-17T14:48:32.173Z,62.18
2018-04-17T14:50:59.722Z,62.16
2018-04-17T14:53:27.258Z,61.47
2018-04-17T14:55:54.827Z,60.25
2018-04-17T14:58:22.375Z,58.93
2018-04-17T15:00:49.931Z,58.22
2018-04-17T15:03:17.526Z,56.89
2018-04-17T15:05:45.071Z,56.20
2018-04-17T15:08:12.610Z,55.95
2018-04-17T15:10:40.716Z,55.78
2018-04-17T15:13:08.958Z,55.53
2018-04-17T15:15:36.513Z,54.67
2018-04-17T15:18:04.640Z,55.19
2018-04-17T15:20:32.234Z,55.25
2018-04-17T15:23:00.318Z,55.34
2018-04-17T15:25:27.857Z,55.64
2018-04-17T15:27:55.390Z,56.02
2018-04-17T15:30:22.962Z,56.54
2018-04-17T15:32:50.504Z,56.77
2018-04-17T15:35:18.453Z,57.31
2018-04-17T15:37:45.987Z,57.67
2018-04-17T15:40:14.294Z,57.37
2018-04-17T15:42:42.487Z,57.55
2018-04-17T15:45:11.750Z,57.68
2018-04-17T15:47:40.804Z,58.03
2018-04-17T15:50:08.700Z,58.18
2018-04-17T15:52:36.236Z,58.19
2018-04-17T15:55:03.831Z,58.33
2018-04-17T15:57:31.354Z,58.41
2018-04-17T15:59:58.894Z,58.63
2018-04-17T16:02:26.970Z,58.86
2018-04-17T16:04:54.526Z,59.04
2018-04-17T16:07:22.072Z,59.23
2018-04-17T16:09:50.305Z,59.75
2018-04-17T16:12:17.862Z,60.29
2018-04-17T16:14:46.566Z,60.70
2018-04-17T16:17:14.901Z,61.24
2018-04-17T16:19:43.322Z,61.75
2018-04-17T16:22:11.598Z,62.37
2018-04-17T16:24:40.686Z,62.61
2018-04-17T16:27:08.774Z,62.92
2018-04-17T16:29:36.358Z,63.40
2018-04-17T16:32:03.925Z,63.51
2018-04-17T16:34:32.259Z,63.71
2018-04-17T16:36:59.816Z,63.93
2018-04-17T16:39:27.422Z,64.17
2018-04-17T16:41:55.593Z,64.36
2018-04-17T16:44:23.637Z,64.73
2018-04-17T16:46:51.317Z,65.15
2018-04-17T16:49:19.501Z,65.44
2018-04-17T16:51:47.097Z,65.76
2018-04-17T16:54:14.717Z,65.83
2018-04-17T16:56:43.423Z,65.78
2018-04-17T16:59:11.003Z,65.58
2018-04-17T17:01:39.583Z,65.86
2018-04-17T17:04:07.263Z,66.28
2018-04-17T17:06:34.867Z,66.52
2018-04-17T17:09:02.976Z,66.75
2018-04-17T17:11:31.103Z,67.14
2018-04-17T17:13:59.673Z,67.25
2018-04-17T17:16:27.966Z,67.17
2018-04-17T17:18:56.328Z,67.15
2018-04-17T17:21:23.900Z,67.01
2018-04-17T17:23:51.796Z,66.85
2018-04-17T17:26:19.342Z,66.67
2018-04-17T17:28:46.918Z,66.67
2018-04-17T17:31:14.491Z,66.58
2018-04-17T17:33:42.223Z,66.58
2018-04-17T17:36:11.424Z,66.54
2018-04-17T17:38:39.326Z,66.49
2018-04-17T17:41:08.294Z,66.49
2018-04-17T17:43:36.524Z,66.68
2018-04-17T17:46:04.103Z,66.90
2018-04-17T17:48:32.147Z,67.18
2018-04-17T17:50:59.686Z,67.33
2018-04-17T17:53:27.237Z,67.53
2018-04-17T17:55:54.892Z,67.74
2018-04-17T17:58:22.430Z,67.82
2018-04-17T18:00:50.535Z,67.98
2018-04-17T18:03:18.094Z,68.05
2018-04-17T18:05:45.686Z,68.33
2018-04-17T18:08:13.264Z,68.38
2018-04-17T18:10:41.534Z,68.53
2018-04-17T18:13:09.944Z,68.67
2018-04-17T18:15:37.535Z,68.79
2018-04-17T18:18:05.623Z,68.96
2018-04-17T18:20:33.184Z,69.10
2018-04-17T18:23:01.185Z,69.28
2018-04-17T18:25:28.729Z,69.51
2018-04-17T18:27:56.334Z,69.78
2018-04-17T18:30:23.917Z,70.05
2018-04-17T18:32:51.491Z,70.21
2018-04-17T18:35:19.980Z,70.58
2018-04-17T18:37:47.581Z,70.75
2018-04-17T18:40:15.653Z,71.02
2018-04-17T18:42:43.878Z,71.31
2018-04-17T18:45:12.033Z,71.52
2018-04-17T18:47:41.095Z,71.75
2018-04-17T18:50:09.963Z,71.98
2018-04-17T18:52:37.716Z,72.38
2018-04-17T18:55:05.338Z,72.60
2018-04-17T18:57:32.901Z,72.79
2018-04-17T19:00:00.457Z,72.97
2018-04-17T19:02:29.607Z,73.05
2018-04-17T19:04:57.133Z,73.16
2018-04-17T19:07:24.693Z,73.49
2018-04-17T19:09:52.869Z,73.68
2018-04-17T19:12:20.427Z,74.00
2018-04-17T19:14:48.859Z,74.26
2018-04-17T19:17:17.407Z,74.49
2018-04-17T19:19:45.843Z,74.60
2018-04-17T19:22:14.016Z,74.67
2018-04-17T19:24:41.616Z,74.79
2018-04-17T19:27:09.443Z,74.86
2018-04-17T19:29:37.057Z,74.94
2018-04-17T19:32:04.971Z,75.09
2018-04-17T19:34:33.279Z,75.15
2018-04-17T19:37:00.834Z,75.17
2018-04-17T19:39:28.397Z,75.30
2018-04-17T19:41:56.487Z,75.43
2018-04-17T19:44:24.981Z,75.38
2018-04-17T19:46:52.550Z,75.43
2018-04-17T19:49:21.034Z,75.46
2018-04-17T19:51:48.569Z,75.39
2018-04-17T19:54:16.094Z,75.34
2018-04-17T19:56:43.666Z,75.27
2018-04-17T19:59:11.190Z,75.40
2018-04-17T20:01:40.676Z,75.33
2018-04-17T20:04:09.441Z,75.33
2018-04-17T20:06:36.979Z,75.41
2018-04-17T20:09:04.572Z,75.32
2018-04-17T20:11:32.989Z,75.39
2018-04-17T20:14:01.199Z,75.53
2018-04-17T20:16:29.392Z,75.53
2018-04-17T20:18:57.734Z,75.70
2018-04-17T20:21:25.265Z,75.85
2018-04-17T20:23:53.338Z,76.01
2018-04-17T20:26:21.666Z,76.04
2018-04-17T20:28:49.215Z,76.35
2018-04-17T20:31:16.726Z,76.41
2018-04-17T20:33:44.298Z,76.46
2018-04-17T20:36:12.443Z,76.57
2018-04-17T20:38:40.646Z,76.77
2018-04-17T20:41:09.555Z,76.74
2018-04-17T20:43:38.155Z,76.92
2018-04-17T20:46:05.949Z,77.00
2018-04-17T20:48:34.031Z,77.03
2018-04-17T20:51:01.589Z,77.12
2018-04-17T20:53:29.139Z,77.16
2018-04-17T20:55:56.709Z,77.22
2018-04-17T20:58:24.250Z,77.31
2018-04-17T21:00:53.171Z,77.36
2018-04-17T21:03:20.704Z,77.45
2018-04-17T21:05:48.255Z,77.68
2018-04-17T21:08:15.891Z,77.77
2018-04-17T21:10:44.217Z,77.82
2018-04-17T21:13:12.531Z,77.95
2018-04-17T21:15:41.331Z,78.07
2018-04-17T21:18:10.266Z,78.13
2018-04-17T21:20:38.109Z,78.23
2018-04-17T21:23:06.208Z,78.19
2018-04-17T21:25:33.726Z,78.38
2018-04-17T21:28:01.306Z,78.47
2018-04-17T21:30:29.440Z,78.52
2018-04-17T21:32:56.972Z,78.65
2018-04-17T21:35:25.336Z,78.72
2018-04-17T21:37:52.864Z,78.67
2018-04-17T21:40:20.999Z,78.72
2018-04-17T21:42:49.090Z,78.88
2018-04-17T21:45:17.378Z,78.97
2018-04-17T21:47:45.675Z,78.96
2018-04-17T21:50:13.246Z,79.03
2018-04-17T21:52:41.049Z,79.09
2018-04-17T21:55:08.735Z,79.17
2018-04-17T21:57:36.266Z,79.15
2018-04-17T22:00:03.899Z,79.04
2018-04-17T22:02:31.459Z,79.06
2018-04-17T22:04:58.982Z,79.06
